createdAt,value
2022-11-24T00:04:57.841Z,1.33
2022-11-24T00:15:01.633Z,1.38
2022-11-24T00:25:05.680Z,1.53
2022-11-24T00:35:09.604Z,1.65
2022-11-24T00:45:14.285Z,1.80
2022-11-24T00:55:18.219Z,1.88
2022-11-24T01:05:21.970Z,1.92
2022-11-24T01:15:26.361Z,1.84
2022-11-24T01:25:30.025Z,1.71
2022-11-24T01:35:34.214Z,1.58
2022-11-24T01:45:41.433Z,1.44
2022-11-24T01:55:46.237Z,1.14
2022-11-24T02:05:54.720Z,1.00
2022-11-24T02:15:58.647Z,0.98
2022-11-24T02:26:16.813Z,0.91
2022-11-24T02:36:20.442Z,0.90
2022-11-24T02:46:24.866Z,0.99
2022-11-24T02:56:28.802Z,1.12
2022-11-24T03:06:32.482Z,1.24
2022-11-24T03:16:36.444Z,1.14
2022-11-24T03:26:40.407Z,1.07
2022-11-24T03:36:44.062Z,1.15
2022-11-24T03:46:47.673Z,1.28
2022-11-24T03:56:51.702Z,1.40
2022-11-24T04:06:55.273Z,1.40
2022-11-24T04:16:59.446Z,1.40
2022-11-24T04:27:03.515Z,1.37
2022-11-24T04:37:07.107Z,1.44
2022-11-24T04:47:15.917Z,1.54
2022-11-24T04:57:21.169Z,1.70
2022-11-24T05:07:25.281Z,1.80
2022-11-24T05:17:30.041Z,1.71
2022-11-24T05:27:34.027Z,1.63
2022-11-24T05:37:38.186Z,1.56
2022-11-24T05:47:42.155Z,1.44
2022-11-24T05:57:46.016Z,1.48
2022-11-24T06:22:05.405Z,1.72
2022-11-24T06:32:10.185Z,1.74
2022-11-24T06:42:14.058Z,1.89
2022-11-24T06:52:17.922Z,1.91
2022-11-24T07:02:22.219Z,1.88
2022-11-24T07:12:26.075Z,1.94
2022-11-24T07:22:30.153Z,2.00
2022-11-24T07:32:34.834Z,2.12
2022-11-24T07:42:38.395Z,2.17
2022-11-24T07:52:42.799Z,2.13
2022-11-24T08:02:47.188Z,2.13
2022-11-24T08:12:51.250Z,2.25
2022-11-24T08:22:59.988Z,2.32
2022-11-24T08:33:04.392Z,2.30
2022-11-24T08:43:08.077Z,2.36
2022-11-24T08:53:11.947Z,2.46
2022-11-24T09:03:16.097Z,2.53
2022-11-24T09:13:20.385Z,2.57
2022-11-24T09:23:24.658Z,2.64
2022-11-24T09:33:29.780Z,2.85
2022-11-24T09:44:07.701Z,2.95
2022-11-24T09:54:21.015Z,2.95
2022-11-24T10:04:44.518Z,2.99
2022-11-24T10:15:17.192Z,3.11
2022-11-24T10:25:59.501Z,3.23
2022-11-24T10:36:09.885Z,3.31
2022-11-24T10:46:28.834Z,3.28
2022-11-24T10:56:44.000Z,3.26
2022-11-24T11:06:48.008Z,3.22
2022-11-24T11:17:00.502Z,3.15
2022-11-24T11:27:17.519Z,3.21
2022-11-24T11:37:24.393Z,3.31
2022-11-24T11:47:44.242Z,3.40
2022-11-24T11:58:16.860Z,3.47
2022-11-24T12:09:18.094Z,3.44
2022-11-24T12:19:25.051Z,3.51
2022-11-24T12:29:50.414Z,3.48
2022-11-24T12:40:06.008Z,3.40
2022-11-24T12:50:16.345Z,3.32
2022-11-24T13:00:45.381Z,3.36
2022-11-24T13:10:57.838Z,3.28
2022-11-24T13:21:02.365Z,3.26
2022-11-24T13:31:12.121Z,3.34
2022-11-24T13:41:34.765Z,3.18
2022-11-24T13:51:38.949Z,3.08
2022-11-24T14:01:44.910Z,3.14
2022-11-24T14:12:19.707Z,3.10
2022-11-24T14:22:37.320Z,3.04
2022-11-24T14:32:42.633Z,2.95
2022-11-24T14:42:51.512Z,2.78
2022-11-24T14:52:58.345Z,2.61
2022-11-24T15:03:03.134Z,2.51
2022-11-24T15:13:28.081Z,2.57
2022-11-24T15:23:34.158Z,2.46
2022-11-24T15:33:38.982Z,2.34
2022-11-24T15:43:43.174Z,2.25
2022-11-24T15:53:57.085Z,2.24
2022-11-24T16:04:04.318Z,2.22
2022-11-24T16:14:08.604Z,2.16
2022-11-24T16:24:12.977Z,2.12
2022-11-24T16:34:17.138Z,2.08
2022-11-24T16:44:21.116Z,2.07
2022-11-24T16:54:26.206Z,2.11
2022-11-24T17:04:30.122Z,2.09
2022-11-24T17:14:34.404Z,2.04
2022-11-24T17:24:39.656Z,1.99
2022-11-24T17:34:43.630Z,1.97
2022-11-24T17:44:57.708Z,2.01
2022-11-24T17:55:03.146Z,2.06
2022-11-24T18:05:08.598Z,2.04
2022-11-24T18:15:13.439Z,1.94
2022-11-24T18:25:18.623Z,1.90
2022-11-24T18:35:23.547Z,1.98
2022-11-24T18:45:28.811Z,2.03
2022-11-24T18:55:34.566Z,1.98
2022-11-24T19:05:42.314Z,1.99
2022-11-24T19:15:47.506Z,2.04
2022-11-24T19:25:56.270Z,2.02
2022-11-24T19:36:06.928Z,2.01
2022-11-24T19:46:17.554Z,1.97
2022-11-24T19:56:25.337Z,2.05
2022-11-24T20:06:33.679Z,2.13
2022-11-24T20:16:39.707Z,2.23
2022-11-24T20:26:57.153Z,2.28
2022-11-24T20:37:03.588Z,2.31
2022-11-24T20:47:09.397Z,2.26
2022-11-24T20:57:16.339Z,2.29
2022-11-24T21:07:20.853Z,2.36
2022-11-24T21:17:25.513Z,2.52
2022-11-24T21:27:30.110Z,2.53
2022-11-24T21:37:34.115Z,2.51
2022-11-24T21:47:38.830Z,2.46
2022-11-24T21:57:42.602Z,2.49
2022-11-24T22:07:47.126Z,2.47
2022-11-24T22:17:51.375Z,2.50
2022-11-24T22:27:55.209Z,2.53
2022-11-24T22:37:59.557Z,2.55
2022-11-24T22:48:03.710Z,2.54
2022-11-24T22:58:07.612Z,2.59
2022-11-24T23:08:11.492Z,2.59
2022-11-24T23:18:15.170Z,2.72
2022-11-24T23:28:18.938Z,2.71
2022-11-24T23:38:29.004Z,2.69
2022-11-24T23:48:33.445Z,2.75
2022-11-24T23:58:37.255Z,2.77
